createdAt,value
2023-03-03T00:02:24.898Z,102033.66
2023-03-03T00:04:53.586Z,102030.44
2023-03-03T00:07:23.265Z,102034.41
2023-03-03T00:09:50.981Z,102038.72
2023-03-03T00:12:32.183Z,102029.56
2023-03-03T00:14:59.078Z,102041.09
2023-03-03T00:17:28.701Z,102029.25
2023-03-03T00:19:56.558Z,102035.28
2023-03-03T00:22:40.352Z,102026.22
2023-03-03T00:25:32.668Z,102029.91
2023-03-03T00:28:41.584Z,102028.59
2023-03-03T00:31:20.334Z,102024.72
2023-03-03T00:33:55.696Z,102030.22
2023-03-03T00:36:32.741Z,102033.56
2023-03-03T00:39:22.460Z,102032.06
2023-03-03T00:41:51.996Z,102027.41
2023-03-03T00:44:25.783Z,102030.97
2023-03-03T00:46:54.214Z,102027.53
2023-03-03T00:49:29.473Z,102036.44
2023-03-03T00:51:58.825Z,102030.09
2023-03-03T00:54:25.722Z,102026.03
2023-03-03T00:56:52.536Z,102024.94
2023-03-03T00:59:19.483Z,102023.00
2023-03-03T01:01:46.354Z,102029.16
2023-03-03T01:04:13.261Z,102019.88
2023-03-03T01:06:40.169Z,102013.09
2023-03-03T01:09:11.622Z,102012.00
2023-03-03T01:11:43.006Z,102008.34
2023-03-03T01:14:12.139Z,102008.25
2023-03-03T01:16:39.018Z,102019.53
2023-03-03T01:19:10.505Z,102017.94
2023-03-03T01:21:40.044Z,102018.47
2023-03-03T01:24:09.416Z,102018.69
2023-03-03T01:26:39.306Z,102010.50
2023-03-03T01:29:08.586Z,102008.56
2023-03-03T01:31:35.690Z,102011.13
2023-03-03T01:34:04.921Z,102001.44
2023-03-03T01:36:31.888Z,101996.72
2023-03-03T01:38:58.796Z,101995.44
2023-03-03T01:41:30.177Z,101999.19
2023-03-03T01:43:57.237Z,102004.22
2023-03-03T01:46:55.925Z,102002.31
2023-03-03T01:49:51.730Z,101999.06
2023-03-03T01:52:28.142Z,102001.03
2023-03-03T01:55:04.308Z,101996.19
2023-03-03T01:57:39.843Z,102001.00
2023-03-03T02:00:11.422Z,101994.00
2023-03-03T02:02:40.286Z,101986.81
2023-03-03T02:05:08.297Z,102000.69
2023-03-03T02:07:36.963Z,101990.69
2023-03-03T02:10:10.982Z,101993.84
2023-03-03T02:12:48.853Z,101996.22
2023-03-03T02:15:36.420Z,101987.47
2023-03-03T02:18:14.658Z,101982.59
2023-03-03T02:21:06.349Z,101986.56
2023-03-03T02:23:57.869Z,101988.59
2023-03-03T02:26:30.583Z,101997.31
2023-03-03T02:28:57.674Z,101988.34
2023-03-03T02:31:28.350Z,101998.13
2023-03-03T02:33:56.116Z,101993.97
2023-03-03T02:36:33.013Z,101985.22
2023-03-03T02:39:26.585Z,101986.47
2023-03-03T02:42:08.997Z,101986.06
2023-03-03T02:44:36.624Z,101991.84
2023-03-03T02:47:08.122Z,101988.69
2023-03-03T02:49:38.098Z,101987.63
2023-03-03T02:52:11.991Z,101991.03
2023-03-03T02:54:44.379Z,101992.00
2023-03-03T02:57:13.642Z,101990.63
2023-03-03T02:59:40.544Z,101989.50
2023-03-03T03:02:08.830Z,101985.69
2023-03-03T03:04:37.904Z,101984.13
2023-03-03T03:07:04.992Z,101977.91
2023-03-03T03:09:31.913Z,101983.03
2023-03-03T03:12:02.321Z,101984.75
2023-03-03T03:14:29.482Z,101996.63
2023-03-03T03:16:56.449Z,101999.16
2023-03-03T03:19:23.336Z,101995.50
2023-03-03T03:21:50.332Z,101999.50
2023-03-03T03:24:21.865Z,102001.69
2023-03-03T03:26:48.812Z,101994.16
2023-03-03T03:29:15.671Z,101992.00
2023-03-03T03:31:43.883Z,101996.66
2023-03-03T03:34:11.092Z,101982.63
2023-03-03T03:36:40.246Z,101998.19
2023-03-03T03:39:07.120Z,101995.72
2023-03-03T03:41:36.528Z,102001.28
2023-03-03T03:44:05.946Z,101996.72
2023-03-03T03:46:35.368Z,101996.88
2023-03-03T03:49:02.399Z,101998.44
2023-03-03T03:51:31.588Z,102005.19
2023-03-03T03:53:58.472Z,102006.09
2023-03-03T03:56:27.496Z,101998.81
2023-03-03T03:58:56.562Z,101993.56
2023-03-03T04:01:26.431Z,101995.66
2023-03-03T04:03:53.323Z,101999.31
2023-03-03T04:06:22.771Z,101996.31
2023-03-03T04:08:49.780Z,101996.72
2023-03-03T04:11:21.172Z,102002.09
2023-03-03T04:13:48.001Z,101995.09
2023-03-03T04:16:15.042Z,101982.84
2023-03-03T04:18:46.574Z,101981.09
2023-03-03T04:21:15.117Z,101971.38
2023-03-03T04:23:45.125Z,101975.25
2023-03-03T04:26:11.977Z,101967.94
2023-03-03T04:28:38.803Z,101972.09
2023-03-03T04:31:08.225Z,101972.19
2023-03-03T04:33:38.263Z,101970.25
2023-03-03T04:36:08.115Z,101979.94
2023-03-03T04:38:37.268Z,101971.44
2023-03-03T04:41:06.841Z,101966.41
2023-03-03T04:43:36.866Z,101970.56
2023-03-03T04:46:04.033Z,101967.56
2023-03-03T04:48:31.173Z,101970.56
2023-03-03T04:51:00.372Z,101959.81
2023-03-03T04:53:27.343Z,101967.56
2023-03-03T04:56:02.188Z,101977.72
2023-03-03T04:58:29.123Z,101970.25
2023-03-03T05:00:57.613Z,101971.50
2023-03-03T05:03:27.108Z,101965.00
2023-03-03T05:05:56.432Z,101967.94
2023-03-03T05:08:23.990Z,101976.81
2023-03-03T05:10:55.162Z,101972.63
2023-03-03T05:13:24.161Z,101971.81
2023-03-03T05:15:55.223Z,101977.88
2023-03-03T05:18:27.539Z,101984.09
2023-03-03T05:20:54.918Z,101992.19
2023-03-03T05:23:26.498Z,101986.03
2023-03-03T05:25:55.910Z,101992.56
2023-03-03T05:28:25.321Z,101990.44
2023-03-03T05:30:54.719Z,101990.03
2023-03-03T05:33:21.600Z,101991.94
2023-03-03T05:35:54.079Z,101988.81
2023-03-03T05:38:21.241Z,102007.69
2023-03-03T05:40:48.376Z,102006.84
2023-03-03T05:43:15.214Z,101998.69
2023-03-03T05:45:49.899Z,102000.44
2023-03-03T05:48:16.859Z,101997.19
2023-03-03T05:50:43.711Z,101994.78
2023-03-03T05:53:13.999Z,101987.50
2023-03-03T05:55:41.343Z,101995.94
2023-03-03T05:58:08.214Z,101993.66
2023-03-03T06:00:35.150Z,101995.44
2023-03-03T06:03:02.127Z,101999.47
2023-03-03T06:05:32.007Z,101993.72
2023-03-03T06:08:01.172Z,102003.31
2023-03-03T06:10:31.127Z,101997.56
2023-03-03T06:12:58.934Z,101998.81
2023-03-03T06:15:28.434Z,102010.69
2023-03-03T06:17:55.349Z,102010.41
2023-03-03T06:20:22.233Z,102002.75
2023-03-03T06:22:49.179Z,102006.47
2023-03-03T06:25:16.210Z,102013.09
2023-03-03T06:27:45.139Z,102015.00
2023-03-03T06:30:12.956Z,102011.00
2023-03-03T06:32:40.239Z,102013.88
2023-03-03T06:35:10.121Z,102018.66
2023-03-03T06:37:39.529Z,102026.22
2023-03-03T06:40:09.498Z,102017.69
2023-03-03T06:42:38.960Z,102024.03
2023-03-03T06:45:06.399Z,102027.09
2023-03-03T06:47:33.930Z,102032.06
2023-03-03T06:50:03.890Z,102042.81
2023-03-03T06:52:30.730Z,102032.25
2023-03-03T06:55:11.303Z,102044.81
2023-03-03T06:57:38.470Z,102032.28
2023-03-03T07:00:16.524Z,102036.69
2023-03-03T07:02:43.762Z,102037.84
2023-03-03T07:05:18.362Z,102048.56
2023-03-03T07:07:45.400Z,102040.13
2023-03-03T07:10:26.342Z,102038.97
2023-03-03T07:12:54.750Z,102048.94
2023-03-03T07:15:37.684Z,102050.66
2023-03-03T07:18:25.689Z,102047.59
2023-03-03T07:20:52.654Z,102051.63
2023-03-03T07:23:42.395Z,102049.13
2023-03-03T07:26:16.097Z,102058.63
2023-03-03T07:28:48.910Z,102063.03
2023-03-03T07:31:34.762Z,102065.00
2023-03-03T07:34:03.828Z,102064.47
2023-03-03T07:36:31.577Z,102061.88
2023-03-03T07:39:05.549Z,102067.75
2023-03-03T07:41:40.144Z,102059.22
2023-03-03T07:44:29.695Z,102069.47
2023-03-03T07:47:01.708Z,102071.09
2023-03-03T07:49:39.421Z,102066.88
2023-03-03T07:52:26.414Z,102071.66
2023-03-03T07:54:56.393Z,102075.41
2023-03-03T07:57:26.750Z,102067.63
2023-03-03T07:59:59.861Z,102081.72
2023-03-03T08:02:52.115Z,102074.41
2023-03-03T08:05:22.004Z,102070.75
2023-03-03T08:07:50.833Z,102077.25
2023-03-03T08:10:50.445Z,102083.69
2023-03-03T08:13:35.124Z,102082.47
2023-03-03T08:16:09.586Z,102085.72
2023-03-03T08:18:55.961Z,102084.19
2023-03-03T08:21:25.729Z,102091.13
2023-03-03T08:23:53.743Z,102079.22
2023-03-03T08:26:25.874Z,102083.03
2023-03-03T08:28:53.503Z,102083.03
2023-03-03T08:31:40.807Z,102081.41
2023-03-03T08:34:08.957Z,102079.47
2023-03-03T08:36:38.387Z,102082.19
2023-03-03T08:39:07.770Z,102070.72
2023-03-03T08:41:34.745Z,102073.44
2023-03-03T08:44:04.063Z,102078.28
2023-03-03T08:46:36.270Z,102076.91
2023-03-03T08:49:03.602Z,102083.13
2023-03-03T08:51:34.539Z,102091.22
2023-03-03T08:54:04.420Z,102088.75
2023-03-03T08:56:34.383Z,102079.84
2023-03-03T08:59:02.802Z,102084.28
2023-03-03T09:01:33.665Z,102073.34
2023-03-03T09:04:00.677Z,102072.13
2023-03-03T09:06:27.735Z,102069.03
2023-03-03T09:08:55.161Z,102083.09
2023-03-03T09:11:32.580Z,102083.28
2023-03-03T09:14:14.845Z,102081.91
2023-03-03T09:16:55.775Z,102080.56
2023-03-03T09:19:32.525Z,102082.63
2023-03-03T09:22:32.280Z,102087.16
2023-03-03T09:25:00.198Z,102086.44
2023-03-03T09:27:32.045Z,102096.72
2023-03-03T09:30:44.386Z,102091.91
2023-03-03T09:33:23.728Z,102086.63
2023-03-03T09:36:04.646Z,102084.25
2023-03-03T09:38:33.949Z,102090.28
2023-03-03T09:41:46.692Z,102101.75
2023-03-03T09:44:41.976Z,102100.19
2023-03-03T09:47:42.543Z,102097.69
2023-03-03T09:50:36.637Z,102100.19
2023-03-03T09:53:30.449Z,102093.38
2023-03-03T09:56:17.105Z,102092.78
2023-03-03T09:59:01.439Z,102105.28
2023-03-03T10:02:07.330Z,102100.13
2023-03-03T10:05:15.746Z,102094.72
2023-03-03T10:08:16.617Z,102095.81
2023-03-03T10:11:02.753Z,102095.59
2023-03-03T10:13:52.378Z,102091.06
2023-03-03T10:16:49.992Z,102094.19
2023-03-03T10:19:43.866Z,102091.06
2023-03-03T10:22:50.180Z,102096.25
2023-03-03T10:25:23.019Z,102086.31
2023-03-03T10:28:40.456Z,102096.34
2023-03-03T10:31:46.844Z,102088.34
2023-03-03T10:34:53.898Z,102094.94
2023-03-03T10:37:32.886Z,102086.09
2023-03-03T10:40:10.908Z,102079.44
2023-03-03T10:43:00.127Z,102085.59
2023-03-03T10:45:44.466Z,102078.72
2023-03-03T10:48:44.467Z,102083.78
2023-03-03T10:52:03.688Z,102070.94
2023-03-03T10:54:53.935Z,102073.31
2023-03-03T10:57:45.670Z,102075.06
2023-03-03T11:00:33.672Z,102078.00
2023-03-03T11:03:35.610Z,102078.97
2023-03-03T11:06:09.344Z,102073.66
2023-03-03T11:08:48.069Z,102075.09
2023-03-03T11:11:48.670Z,102070.88
2023-03-03T11:14:34.666Z,102072.03
2023-03-03T11:17:51.923Z,102063.28
2023-03-03T11:20:43.300Z,102060.47
2023-03-03T11:23:34.835Z,102067.59
2023-03-03T11:26:22.746Z,102059.81
2023-03-03T11:29:27.022Z,102058.25
2023-03-03T11:31:57.758Z,102045.38
2023-03-03T11:34:52.655Z,102039.88
2023-03-03T11:37:36.901Z,102044.59
2023-03-03T11:40:27.524Z,102045.00
2023-03-03T11:43:34.126Z,102032.91
2023-03-03T11:46:13.195Z,102029.59
2023-03-03T11:49:05.820Z,102038.94
2023-03-03T11:51:53.196Z,102030.38
2023-03-03T11:54:36.537Z,102023.38
2023-03-03T11:57:29.556Z,102016.66
2023-03-03T12:00:54.488Z,102014.25
2023-03-03T12:03:41.667Z,102020.41
2023-03-03T12:06:25.132Z,102016.50
2023-03-03T12:09:22.593Z,102008.44
2023-03-03T12:11:55.384Z,102011.97
2023-03-03T12:14:33.067Z,102008.03
2023-03-03T12:17:34.138Z,102010.28
2023-03-03T12:20:25.122Z,101995.97
2023-03-03T12:23:10.319Z,101995.53
2023-03-03T12:25:48.078Z,101989.31
2023-03-03T12:28:23.358Z,101988.09
2023-03-03T12:31:42.227Z,101989.34
2023-03-03T12:34:25.824Z,101974.16
2023-03-03T12:37:35.918Z,101973.13
2023-03-03T12:40:21.856Z,101977.28
2023-03-03T12:43:16.588Z,101969.09
2023-03-03T12:46:28.616Z,101959.94
2023-03-03T12:48:58.406Z,101965.88
2023-03-03T12:51:51.234Z,101965.75
2023-03-03T12:54:58.166Z,101959.84
2023-03-03T12:58:02.795Z,101959.97
2023-03-03T13:00:49.160Z,101950.53
2023-03-03T13:03:54.953Z,101946.66
2023-03-03T13:06:32.481Z,101947.84
2023-03-03T13:09:36.386Z,101938.13
2023-03-03T13:12:21.822Z,101938.56
2023-03-03T13:15:05.754Z,101934.84
2023-03-03T13:17:59.634Z,101937.50
2023-03-03T13:20:41.228Z,101942.41
2023-03-03T13:23:38.241Z,101940.09
2023-03-03T13:26:16.167Z,101940.81
2023-03-03T13:29:00.493Z,101936.91
2023-03-03T13:31:43.137Z,101938.91
2023-03-03T13:34:43.785Z,101935.94
2023-03-03T13:37:20.139Z,101940.00
2023-03-03T13:40:32.215Z,101929.66
2023-03-03T13:43:19.316Z,101936.91
2023-03-03T13:46:14.602Z,101927.94
2023-03-03T13:49:26.808Z,101925.50
2023-03-03T13:52:14.475Z,101917.09
2023-03-03T13:55:01.164Z,101911.03
2023-03-03T13:58:06.050Z,101911.94
2023-03-03T14:00:50.966Z,101898.09
2023-03-03T14:04:14.665Z,101897.03
2023-03-03T14:06:50.617Z,101887.47
2023-03-03T14:10:03.033Z,101887.69
2023-03-03T14:12:45.676Z,101876.25
2023-03-03T14:15:36.783Z,101874.41
2023-03-03T14:18:24.888Z,101866.97
2023-03-03T14:20:55.368Z,101863.94
2023-03-03T14:23:51.933Z,101863.31
2023-03-03T14:26:19.026Z,101871.31
2023-03-03T14:28:49.958Z,101858.03
2023-03-03T14:31:52.419Z,101860.16
2023-03-03T14:34:39.946Z,101851.03
2023-03-03T14:37:32.274Z,101849.75
2023-03-03T14:40:32.459Z,101849.25
2023-03-03T14:43:08.199Z,101843.91
2023-03-03T14:45:44.262Z,101837.97
2023-03-03T14:48:18.569Z,101828.75
2023-03-03T14:51:29.001Z,101832.44
2023-03-03T14:53:57.715Z,101819.00
2023-03-03T14:56:34.165Z,101815.97
2023-03-03T14:59:27.025Z,101823.59
2023-03-03T15:02:09.016Z,101810.88
2023-03-03T15:04:35.937Z,101804.47
2023-03-03T15:07:31.377Z,101802.66
2023-03-03T15:09:58.440Z,101800.59
2023-03-03T15:12:39.071Z,101800.16
2023-03-03T15:18:27.884Z,101798.69
2023-03-03T15:21:21.929Z,101806.59
2023-03-03T15:24:31.383Z,101801.34
2023-03-03T15:27:16.628Z,101797.50
2023-03-03T15:29:58.518Z,101798.22
2023-03-03T15:32:59.851Z,101794.25
2023-03-03T15:35:52.882Z,101790.31
2023-03-03T15:38:40.820Z,101791.75
2023-03-03T15:41:35.286Z,101784.25
2023-03-03T15:44:19.316Z,101784.16
2023-03-03T15:46:58.386Z,101782.28
2023-03-03T15:50:01.790Z,101787.41
2023-03-03T15:53:18.546Z,101782.75
2023-03-03T15:56:06.169Z,101767.25
2023-03-03T15:59:26.397Z,101776.53
2023-03-03T16:02:20.670Z,101774.69
2023-03-03T16:04:54.439Z,101770.19
2023-03-03T16:07:58.879Z,101772.25
2023-03-03T16:11:12.184Z,101769.97
2023-03-03T16:14:02.321Z,101771.72
2023-03-03T16:16:38.038Z,101773.19
2023-03-03T16:19:54.643Z,101778.75
2023-03-03T16:22:56.563Z,101772.47
2023-03-03T16:25:52.420Z,101779.22
2023-03-03T16:28:31.243Z,101779.16
2023-03-03T16:31:45.597Z,101781.53
2023-03-03T16:34:18.541Z,101790.28
2023-03-03T16:37:05.664Z,101783.03
2023-03-03T16:39:56.992Z,101791.84
2023-03-03T16:42:32.460Z,101786.00
2023-03-03T16:45:22.053Z,101785.56
2023-03-03T16:48:28.125Z,101787.22
2023-03-03T16:50:57.781Z,101790.28
2023-03-03T16:53:49.109Z,101792.97
2023-03-03T16:56:29.357Z,101790.59
2023-03-03T16:59:34.351Z,101791.66
2023-03-03T17:02:37.594Z,101791.69
2023-03-03T17:05:34.440Z,101797.38
2023-03-03T17:08:39.854Z,101791.75
2023-03-03T17:11:43.758Z,101792.97
2023-03-03T17:14:58.737Z,101791.00
2023-03-03T17:18:09.227Z,101788.31
2023-03-03T17:20:50.981Z,101801.56
2023-03-03T17:23:29.907Z,101793.47
2023-03-03T17:26:26.191Z,101800.59
2023-03-03T17:29:09.694Z,101795.44
2023-03-03T17:32:08.192Z,101801.56
2023-03-03T17:35:25.505Z,101799.34
2023-03-03T17:38:19.764Z,101798.59
2023-03-03T17:41:06.530Z,101798.75
2023-03-03T17:44:13.923Z,101794.31
2023-03-03T17:47:01.487Z,101794.56
2023-03-03T17:49:50.842Z,101800.09
2023-03-03T17:52:42.348Z,101791.72
2023-03-03T17:55:30.238Z,101787.81
2023-03-03T17:58:12.471Z,101783.63
2023-03-03T18:01:21.249Z,101787.94
2023-03-03T18:04:51.226Z,101788.91
2023-03-03T18:07:57.501Z,101789.50
2023-03-03T18:11:13.643Z,101784.38
2023-03-03T18:14:22.374Z,101788.28
2023-03-03T18:17:08.595Z,101777.00
2023-03-03T18:20:13.155Z,101772.34
2023-03-03T18:22:48.561Z,101778.09
2023-03-03T18:25:19.596Z,101781.91
2023-03-03T18:28:03.844Z,101782.75
2023-03-03T18:30:58.357Z,101775.47
2023-03-03T18:34:00.738Z,101779.66
2023-03-03T18:36:27.538Z,101779.22
2023-03-03T18:38:57.399Z,101785.47
2023-03-03T18:42:30.404Z,101785.59
2023-03-03T18:44:59.627Z,101789.03
2023-03-03T18:48:01.083Z,101793.09
2023-03-03T18:50:37.259Z,101792.22
2023-03-03T18:53:16.040Z,101793.16
2023-03-03T18:56:00.934Z,101797.34
2023-03-03T18:58:35.739Z,101795.66
2023-03-03T19:01:10.786Z,101790.28
2023-03-03T19:04:03.827Z,101777.88
2023-03-03T19:06:35.629Z,101783.88
2023-03-03T19:09:05.735Z,101778.00
2023-03-03T19:11:44.964Z,101782.78
2023-03-03T19:14:28.880Z,101779.25
2023-03-03T19:16:59.010Z,101775.06
2023-03-03T19:19:34.955Z,101781.06
2023-03-03T19:22:27.100Z,101772.38
2023-03-03T19:25:09.215Z,101772.38
2023-03-03T19:27:50.263Z,101759.63
2023-03-03T19:30:44.402Z,101775.81
2023-03-03T19:33:57.208Z,101764.34
2023-03-03T19:37:13.573Z,101765.47
2023-03-03T19:39:40.351Z,101763.50
2023-03-03T19:42:30.379Z,101772.00
2023-03-03T19:45:05.698Z,101760.31
2023-03-03T19:47:46.749Z,101759.22
2023-03-03T19:50:44.327Z,101756.13
2023-03-03T19:53:34.456Z,101755.13
2023-03-03T19:56:28.285Z,101747.91
2023-03-03T19:59:13.866Z,101755.75
2023-03-03T20:02:25.174Z,101752.47
2023-03-03T20:05:25.423Z,101753.31
2023-03-03T20:08:14.253Z,101753.53
2023-03-03T20:10:54.972Z,101758.06
2023-03-03T20:13:43.650Z,101755.22
2023-03-03T20:16:22.821Z,101755.69
2023-03-03T20:19:26.152Z,101752.47
2023-03-03T20:22:28.315Z,101751.69
2023-03-03T20:25:14.481Z,101747.53
2023-03-03T20:28:13.251Z,101745.94
2023-03-03T20:30:50.431Z,101747.63
2023-03-03T20:33:32.755Z,101746.09
2023-03-03T20:36:09.500Z,101736.94
2023-03-03T20:39:11.628Z,101747.53
2023-03-03T20:42:06.985Z,101745.94
2023-03-03T20:45:05.680Z,101739.06
2023-03-03T20:48:23.733Z,101737.28
2023-03-03T20:51:11.615Z,101745.53
2023-03-03T20:53:48.532Z,101736.66
2023-03-03T20:56:38.793Z,101729.75
2023-03-03T20:59:19.006Z,101731.09
2023-03-03T21:01:58.372Z,101731.69
2023-03-03T21:04:31.861Z,101738.38
2023-03-03T21:07:01.349Z,101725.78
2023-03-03T21:09:41.581Z,101720.69
2023-03-03T21:12:31.798Z,101728.97
2023-03-03T21:15:11.359Z,101725.03
2023-03-03T21:17:42.507Z,101713.41
2023-03-03T21:20:25.040Z,101725.09
2023-03-03T21:22:53.462Z,101718.56
2023-03-03T21:25:53.894Z,101715.81
2023-03-03T21:28:29.592Z,101708.66
2023-03-03T21:31:15.668Z,101701.41
2023-03-03T21:33:58.405Z,101703.00
2023-03-03T21:36:47.323Z,101697.97
2023-03-03T21:39:28.697Z,101703.50
2023-03-03T21:42:09.506Z,101696.25
2023-03-03T21:44:40.959Z,101699.03
2023-03-03T21:47:11.858Z,101696.19
2023-03-03T21:49:43.537Z,101689.47
2023-03-03T21:52:16.370Z,101692.63
2023-03-03T21:54:48.033Z,101699.16
2023-03-03T21:57:18.382Z,101694.41
2023-03-03T21:59:45.429Z,101682.13
2023-03-03T22:02:12.481Z,101686.91
2023-03-03T22:04:39.812Z,101688.88
2023-03-03T22:07:07.112Z,101678.94
2023-03-03T22:09:35.022Z,101686.72
2023-03-03T22:12:02.103Z,101690.16
2023-03-03T22:14:29.180Z,101677.66
2023-03-03T22:16:56.018Z,101672.75
2023-03-03T22:19:23.136Z,101685.16
2023-03-03T22:21:50.416Z,101675.75
2023-03-03T22:24:19.613Z,101670.00
2023-03-03T22:26:48.709Z,101679.38
2023-03-03T22:29:17.055Z,101682.31
2023-03-03T22:31:44.059Z,101679.91
2023-03-03T22:34:13.243Z,101677.84
2023-03-03T22:36:40.174Z,101679.19
2023-03-03T22:39:10.511Z,101681.25
2023-03-03T22:41:37.546Z,101673.78
2023-03-03T22:44:04.596Z,101675.75
2023-03-03T22:46:31.606Z,101675.25
2023-03-03T22:49:00.844Z,101673.06
2023-03-03T22:51:30.266Z,101666.94
2023-03-03T22:53:59.657Z,101676.59
2023-03-03T22:56:26.688Z,101675.63
2023-03-03T22:58:58.111Z,101675.75
2023-03-03T23:01:25.062Z,101673.31
2023-03-03T23:03:52.096Z,101666.19
2023-03-03T23:06:18.947Z,101674.78
2023-03-03T23:08:45.981Z,101677.59
2023-03-03T23:11:15.216Z,101674.53
2023-03-03T23:13:42.194Z,101667.19
2023-03-03T23:16:09.104Z,101664.75
2023-03-03T23:18:36.012Z,101672.44
2023-03-03T23:21:02.885Z,101661.66
2023-03-03T23:23:30.614Z,101663.97
2023-03-03T23:25:57.633Z,101661.81
2023-03-03T23:28:24.542Z,101653.94
2023-03-03T23:30:52.433Z,101650.00
2023-03-03T23:33:19.425Z,101654.19
2023-03-03T23:35:49.908Z,101648.06
2023-03-03T23:38:17.720Z,101647.56
2023-03-03T23:40:47.171Z,101654.91
2023-03-03T23:43:16.579Z,101643.16
2023-03-03T23:45:43.667Z,101657.13
2023-03-03T23:48:10.829Z,101646.34
2023-03-03T23:50:38.086Z,101652.09
2023-03-03T23:53:06.232Z,101649.06
2023-03-03T23:55:33.490Z,101642.91
2023-03-03T23:58:04.831Z,101646.06
